createdAt,value
2023-04-30T00:00:23.743Z,98056.00
2023-04-30T00:02:50.111Z,98058.00
2023-04-30T00:05:16.442Z,98054.00
2023-04-30T00:07:42.895Z,98065.00
2023-04-30T00:10:10.426Z,98066.00
2023-04-30T00:12:37.397Z,98073.00
2023-04-30T00:15:04.202Z,98049.00
2023-04-30T00:17:30.483Z,98066.00
2023-04-30T00:19:56.979Z,98061.00
2023-04-30T00:22:23.360Z,98059.00
2023-04-30T00:24:49.535Z,98065.00
2023-04-30T00:27:15.732Z,98059.00
2023-04-30T00:29:42.153Z,98067.00
2023-04-30T00:32:08.985Z,98064.00
2023-04-30T00:34:35.469Z,98070.00
2023-04-30T00:37:01.911Z,98065.00
2023-04-30T00:39:28.167Z,98067.00
2023-04-30T00:41:54.766Z,98067.00
2023-04-30T00:44:21.285Z,98071.00
2023-04-30T00:46:47.551Z,98071.00
2023-04-30T00:49:14.781Z,98065.00
2023-04-30T00:51:41.661Z,98068.00
2023-04-30T00:54:08.693Z,98069.00
2023-04-30T00:56:37.503Z,98066.00
2023-04-30T00:59:03.806Z,98072.00
2023-04-30T01:01:31.189Z,98084.00
2023-04-30T01:03:57.988Z,98076.00
2023-04-30T01:06:26.210Z,98073.00
2023-04-30T01:08:53.506Z,98071.00
2023-04-30T01:11:44.946Z,98071.00
2023-04-30T01:14:29.406Z,98089.00
2023-04-30T01:17:18.532Z,98088.00
2023-04-30T01:19:45.837Z,98093.00
2023-04-30T01:22:23.950Z,98096.00
2023-04-30T01:25:25.635Z,98098.00
2023-04-30T01:28:21.714Z,98094.00
2023-04-30T01:30:49.209Z,98095.00
2023-04-30T01:33:15.554Z,98095.00
2023-04-30T01:36:31.383Z,98092.00
2023-04-30T01:39:33.738Z,98090.00
2023-04-30T01:42:16.851Z,98084.00
2023-04-30T01:45:04.497Z,98084.00
2023-04-30T01:47:44.751Z,98092.00
2023-04-30T01:50:42.314Z,98086.00
2023-04-30T01:53:16.291Z,98078.00
2023-04-30T01:55:50.366Z,98077.00
2023-04-30T01:58:17.319Z,98076.00
2023-04-30T02:00:43.469Z,98082.00
2023-04-30T02:03:10.155Z,98081.00
2023-04-30T02:05:36.435Z,98090.00
2023-04-30T02:08:03.115Z,98075.00
2023-04-30T02:10:29.815Z,98079.00
2023-04-30T02:12:56.093Z,98073.00
2023-04-30T02:15:22.404Z,98094.00
2023-04-30T02:17:48.684Z,98080.00
2023-04-30T02:20:14.956Z,98087.00
2023-04-30T02:22:42.530Z,98092.00
2023-04-30T02:25:10.834Z,98087.00
2023-04-30T02:27:37.547Z,98088.00
2023-04-30T02:30:05.044Z,98090.00
2023-04-30T02:32:31.687Z,98091.00
2023-04-30T02:34:58.325Z,98107.00
2023-04-30T02:37:25.322Z,98102.00
2023-04-30T02:39:52.680Z,98096.00
2023-04-30T02:42:18.958Z,98095.00
2023-04-30T02:44:45.190Z,98092.00
2023-04-30T02:47:11.488Z,98097.00
2023-04-30T02:49:38.104Z,98100.00
2023-04-30T02:52:04.406Z,98101.00
2023-04-30T02:54:30.895Z,98100.00
2023-04-30T02:56:57.295Z,98098.00
2023-04-30T02:59:23.556Z,98080.00
2023-04-30T03:01:49.772Z,98099.00
2023-04-30T03:04:16.103Z,98103.00
2023-04-30T03:06:42.532Z,98104.00
2023-04-30T03:09:08.755Z,98102.00
2023-04-30T03:11:36.782Z,98095.00
2023-04-30T03:14:04.190Z,98101.00
2023-04-30T03:16:30.492Z,98095.00
2023-04-30T03:18:56.777Z,98089.00
2023-04-30T03:21:23.322Z,98104.00
2023-04-30T03:23:49.569Z,98090.00
2023-04-30T03:26:15.788Z,98089.00
2023-04-30T03:28:42.057Z,98085.00
2023-04-30T03:31:08.308Z,98096.00
2023-04-30T03:33:34.716Z,98091.00
2023-04-30T03:36:01.218Z,98095.00
2023-04-30T03:38:27.444Z,98099.00
2023-04-30T03:40:53.627Z,98108.00
2023-04-30T03:43:21.419Z,98106.00
2023-04-30T03:45:47.649Z,98098.00
2023-04-30T03:48:14.234Z,98094.00
2023-04-30T03:50:40.719Z,98099.00
2023-04-30T03:53:06.955Z,98090.00
2023-04-30T03:55:35.354Z,98090.00
2023-04-30T03:58:01.973Z,98082.00
2023-04-30T04:00:28.423Z,98095.00
2023-04-30T04:02:56.725Z,98088.00
2023-04-30T04:05:22.944Z,98101.00
2023-04-30T04:07:49.159Z,98087.00
2023-04-30T04:10:15.815Z,98091.00
2023-04-30T04:12:42.362Z,98086.00
2023-04-30T04:15:09.282Z,98094.00
2023-04-30T04:17:35.636Z,98095.00
2023-04-30T04:20:02.022Z,98098.00
2023-04-30T04:22:28.758Z,98094.00
2023-04-30T04:24:55.851Z,98093.00
2023-04-30T04:27:23.107Z,98103.00
2023-04-30T04:29:49.714Z,98103.00
2023-04-30T04:32:15.869Z,98114.00
2023-04-30T04:34:43.348Z,98116.00
2023-04-30T04:37:09.565Z,98109.00
2023-04-30T04:39:36.697Z,98100.00
2023-04-30T04:42:06.044Z,98100.00
2023-04-30T04:44:32.682Z,98116.00
2023-04-30T04:46:58.991Z,98116.00
2023-04-30T04:49:25.658Z,98109.00
2023-04-30T04:51:52.246Z,98120.00
2023-04-30T04:54:18.836Z,98098.00
2023-04-30T04:56:45.048Z,98120.00
2023-04-30T04:59:12.248Z,98111.00
2023-04-30T05:01:38.867Z,98114.00
2023-04-30T05:04:05.355Z,98125.00
2023-04-30T05:06:31.901Z,98113.00
2023-04-30T05:08:58.357Z,98117.00
2023-04-30T05:11:24.727Z,98127.00
2023-04-30T05:13:51.521Z,98109.00
2023-04-30T05:16:18.023Z,98125.00
2023-04-30T05:18:44.296Z,98117.00
2023-04-30T05:21:10.733Z,98120.00
2023-04-30T05:23:37.049Z,98116.00
2023-04-30T05:26:04.039Z,98117.00
2023-04-30T05:28:30.917Z,98133.00
2023-04-30T05:30:57.711Z,98104.00
2023-04-30T05:33:26.926Z,98121.00
2023-04-30T05:35:53.081Z,98129.00
2023-04-30T05:38:22.411Z,98140.00
2023-04-30T05:40:48.646Z,98141.00
2023-04-30T05:43:24.379Z,98141.00
2023-04-30T05:45:50.638Z,98135.00
2023-04-30T05:48:17.149Z,98133.00
2023-04-30T05:50:43.618Z,98130.00
2023-04-30T05:53:10.020Z,98147.00
2023-04-30T05:55:43.174Z,98137.00
2023-04-30T05:58:09.845Z,98125.00
2023-04-30T06:00:36.826Z,98151.00
2023-04-30T06:03:03.523Z,98135.00
2023-04-30T06:05:30.526Z,98145.00
2023-04-30T06:07:56.732Z,98158.00
2023-04-30T06:10:23.496Z,98150.00
2023-04-30T06:12:53.954Z,98163.00
2023-04-30T06:15:26.659Z,98157.00
2023-04-30T06:17:52.976Z,98147.00
2023-04-30T06:20:54.642Z,98156.00
2023-04-30T06:23:21.643Z,98148.00
2023-04-30T06:25:48.235Z,98146.00
2023-04-30T06:28:24.710Z,98133.00
2023-04-30T06:31:04.985Z,98153.00
2023-04-30T06:33:33.863Z,98144.00
2023-04-30T06:36:00.072Z,98147.00
2023-04-30T06:38:26.559Z,98150.00
2023-04-30T06:40:52.762Z,98146.00
2023-04-30T06:43:19.330Z,98145.00
2023-04-30T06:45:45.974Z,98137.00
2023-04-30T06:48:12.556Z,98145.00
2023-04-30T06:50:44.292Z,98140.00
2023-04-30T06:53:14.875Z,98137.00
2023-04-30T06:55:42.333Z,98149.00
2023-04-30T06:58:08.646Z,98135.00
2023-04-30T07:00:35.322Z,98146.00
2023-04-30T07:03:01.935Z,98141.00
2023-04-30T07:05:32.023Z,98140.00
2023-04-30T07:08:01.031Z,98137.00
2023-04-30T07:10:27.358Z,98134.00
2023-04-30T07:12:53.536Z,98138.00
2023-04-30T07:15:19.809Z,98133.00
2023-04-30T07:17:46.044Z,98135.00
2023-04-30T07:20:15.937Z,98136.00
2023-04-30T07:22:46.289Z,98128.00
2023-04-30T07:25:13.598Z,98137.00
2023-04-30T07:27:40.352Z,98132.00
2023-04-30T07:30:09.234Z,98124.00
2023-04-30T07:32:38.694Z,98113.00
2023-04-30T07:35:05.485Z,98110.00
2023-04-30T07:37:35.548Z,98117.00
2023-04-30T07:40:03.384Z,98110.00
2023-04-30T07:42:29.688Z,98114.00
2023-04-30T07:44:55.939Z,98113.00
2023-04-30T07:47:22.171Z,98118.00
2023-04-30T07:49:49.411Z,98109.00
2023-04-30T07:52:15.855Z,98109.00
2023-04-30T07:54:42.007Z,98126.00
2023-04-30T07:57:08.339Z,98118.00
2023-04-30T07:59:34.923Z,98114.00
2023-04-30T08:02:01.301Z,98128.00
2023-04-30T08:04:27.730Z,98118.00
2023-04-30T08:06:53.940Z,98128.00
2023-04-30T08:09:20.232Z,98125.00
2023-04-30T08:11:46.489Z,98122.00
2023-04-30T08:14:12.727Z,98116.00
2023-04-30T08:16:39.094Z,98124.00
2023-04-30T08:19:05.278Z,98130.00
2023-04-30T08:21:31.691Z,98131.00
2023-04-30T08:23:57.901Z,98125.00
2023-04-30T08:26:25.410Z,98131.00
2023-04-30T08:28:51.645Z,98133.00
2023-04-30T08:31:18.195Z,98137.00
2023-04-30T08:33:44.917Z,98140.00
2023-04-30T08:36:11.248Z,98125.00
2023-04-30T08:38:37.474Z,98139.00
2023-04-30T08:41:13.385Z,98128.00
2023-04-30T08:43:41.226Z,98127.00
2023-04-30T08:46:08.196Z,98126.00
2023-04-30T08:48:34.707Z,98125.00
2023-04-30T08:51:03.464Z,98118.00
2023-04-30T08:53:34.057Z,98116.00
2023-04-30T08:56:00.488Z,98110.00
2023-04-30T08:58:26.914Z,98122.00
2023-04-30T09:00:53.192Z,98122.00
2023-04-30T09:03:21.412Z,98118.00
2023-04-30T09:05:47.763Z,98117.00
2023-04-30T09:08:19.864Z,98118.00
2023-04-30T09:10:46.250Z,98122.00
2023-04-30T09:13:13.453Z,98116.00
2023-04-30T09:15:41.367Z,98112.00
2023-04-30T09:18:16.637Z,98105.00
2023-04-30T09:21:01.420Z,98115.00
2023-04-30T09:23:28.771Z,98100.00
2023-04-30T09:25:56.433Z,98107.00
2023-04-30T09:28:24.936Z,98096.00
2023-04-30T09:30:52.306Z,98106.00
2023-04-30T09:33:19.836Z,98104.00
2023-04-30T09:35:46.096Z,98095.00
2023-04-30T09:38:32.950Z,98095.00
2023-04-30T09:41:01.579Z,98092.00
2023-04-30T09:43:28.885Z,98083.00
2023-04-30T09:45:57.869Z,98084.00
2023-04-30T09:48:27.512Z,98083.00
2023-04-30T09:50:53.845Z,98076.00
2023-04-30T09:53:20.957Z,98078.00
2023-04-30T09:55:50.252Z,98090.00
2023-04-30T09:58:18.677Z,98080.00
2023-04-30T10:00:47.765Z,98084.00
2023-04-30T10:03:15.764Z,98056.00
2023-04-30T10:05:48.049Z,98064.00
2023-04-30T10:08:31.274Z,98066.00
2023-04-30T10:11:06.854Z,98062.00
2023-04-30T10:13:46.152Z,98074.00
2023-04-30T10:17:00.748Z,98059.00
2023-04-30T10:19:33.124Z,98060.00
2023-04-30T10:22:00.911Z,98056.00
2023-04-30T10:24:27.692Z,98055.00
2023-04-30T10:26:56.586Z,98060.00
2023-04-30T10:29:23.180Z,98047.00
2023-04-30T10:31:53.606Z,98046.00
2023-04-30T10:34:26.214Z,98049.00
2023-04-30T10:37:00.845Z,98041.00
2023-04-30T10:39:28.168Z,98026.00
2023-04-30T10:42:06.131Z,98050.00
2023-04-30T10:44:35.712Z,98052.00
2023-04-30T10:47:04.296Z,98042.00
2023-04-30T10:49:30.875Z,98027.00
2023-04-30T10:52:05.474Z,98032.00
2023-04-30T10:54:36.186Z,98015.00
2023-04-30T10:57:19.520Z,97992.00
2023-04-30T11:00:13.836Z,98024.00
2023-04-30T11:02:43.328Z,98015.00
2023-04-30T11:05:12.965Z,98021.00
2023-04-30T11:07:51.551Z,98029.00
2023-04-30T11:10:25.712Z,97978.00
2023-04-30T11:12:55.413Z,98017.00
2023-04-30T11:15:30.936Z,97999.00
2023-04-30T11:17:59.813Z,97986.00
2023-04-30T11:20:27.400Z,98007.00
2023-04-30T11:23:37.895Z,97984.00
2023-04-30T11:26:08.265Z,97995.00
2023-04-30T11:28:37.745Z,97995.00
2023-04-30T11:31:05.453Z,97984.00
2023-04-30T11:33:34.920Z,98004.00
2023-04-30T11:36:05.749Z,97966.00
2023-04-30T11:38:36.539Z,97999.00
2023-04-30T11:41:04.623Z,97986.00
2023-04-30T11:43:34.108Z,97980.00
2023-04-30T11:46:27.394Z,97982.00
2023-04-30T11:48:53.748Z,97968.00
2023-04-30T11:51:28.288Z,97974.00
2023-04-30T11:53:54.930Z,97965.00
2023-04-30T11:56:24.691Z,97976.00
2023-04-30T11:58:55.934Z,97965.00
2023-04-30T12:01:27.980Z,97961.00
2023-04-30T12:03:56.937Z,97974.00
2023-04-30T12:06:30.644Z,97974.00
2023-04-30T12:09:06.811Z,97963.00
2023-04-30T12:11:34.966Z,97964.00
2023-04-30T12:14:12.133Z,97973.00
2023-04-30T12:16:50.340Z,97974.00
2023-04-30T12:19:19.141Z,97960.00
2023-04-30T12:21:47.930Z,97970.00
2023-04-30T12:24:16.916Z,97956.00
2023-04-30T12:26:44.287Z,97961.00
2023-04-30T12:29:15.746Z,97968.00
2023-04-30T12:31:43.307Z,97954.00
2023-04-30T12:34:14.321Z,97955.00
2023-04-30T12:36:43.574Z,97960.00
2023-04-30T12:39:15.374Z,97956.00
2023-04-30T12:41:49.997Z,97928.00
2023-04-30T12:44:26.869Z,97932.00
2023-04-30T12:46:59.101Z,97944.00
2023-04-30T12:49:28.848Z,97960.00
2023-04-30T12:52:12.068Z,97952.00
2023-04-30T12:54:39.660Z,97953.00
2023-04-30T12:57:11.788Z,97934.00
2023-04-30T12:59:54.319Z,97952.00
2023-04-30T13:02:25.771Z,97923.00
2023-04-30T13:04:54.048Z,97945.00
2023-04-30T13:07:24.155Z,97908.00
2023-04-30T13:09:51.544Z,97922.00
2023-04-30T13:12:21.180Z,97921.00
2023-04-30T13:14:47.853Z,97892.00
2023-04-30T13:17:14.754Z,97892.00
2023-04-30T13:19:41.483Z,97925.00
2023-04-30T13:22:08.525Z,97928.00
2023-04-30T13:24:36.370Z,97899.00
2023-04-30T13:27:03.661Z,97908.00
2023-04-30T13:29:31.382Z,97932.00
2023-04-30T13:32:01.410Z,97928.00
2023-04-30T13:34:29.729Z,97917.00
2023-04-30T13:36:56.967Z,97925.00
2023-04-30T13:39:24.269Z,97934.00
2023-04-30T13:41:54.390Z,97908.00
2023-04-30T13:44:21.037Z,97892.00
2023-04-30T13:46:47.759Z,97919.00
2023-04-30T13:49:14.319Z,97916.00
2023-04-30T13:51:41.475Z,97908.00
2023-04-30T13:54:08.165Z,97883.00
2023-04-30T13:56:35.061Z,97908.00
2023-04-30T13:59:02.479Z,97881.00
2023-04-30T14:01:29.443Z,97897.00
2023-04-30T14:03:56.891Z,97906.00
2023-04-30T14:06:23.547Z,97916.00
2023-04-30T14:08:50.460Z,97884.00
2023-04-30T14:11:17.756Z,97889.00
2023-04-30T14:13:46.560Z,97883.00
2023-04-30T14:16:13.424Z,97869.00
2023-04-30T14:18:40.097Z,97854.00
2023-04-30T14:21:07.600Z,97870.00
2023-04-30T14:23:34.446Z,97896.00
2023-04-30T14:26:01.414Z,97861.00
2023-04-30T14:28:28.287Z,97867.00
2023-04-30T14:30:57.641Z,97850.00
2023-04-30T14:33:26.898Z,97860.00
2023-04-30T14:36:01.368Z,97863.00
2023-04-30T14:38:28.097Z,97876.00
2023-04-30T14:40:54.594Z,97831.00
2023-04-30T14:43:21.327Z,97848.00
2023-04-30T14:45:47.771Z,97860.00
2023-04-30T14:48:14.253Z,97858.00
2023-04-30T14:50:41.864Z,97875.00
2023-04-30T14:53:09.879Z,97831.00
2023-04-30T14:55:37.575Z,97849.00
2023-04-30T14:58:04.542Z,97865.00
2023-04-30T15:00:32.480Z,97852.00
2023-04-30T15:03:00.070Z,97859.00
2023-04-30T15:05:28.093Z,97849.00
2023-04-30T15:07:54.409Z,97865.00
2023-04-30T15:10:21.150Z,97848.00
2023-04-30T15:12:48.073Z,97846.00
2023-04-30T15:15:19.739Z,97856.00
2023-04-30T15:17:46.156Z,97839.00
2023-04-30T15:20:13.134Z,97835.00
2023-04-30T15:22:41.730Z,97841.00
2023-04-30T15:25:08.744Z,97832.00
2023-04-30T15:27:36.189Z,97820.00
2023-04-30T15:30:05.971Z,97816.00
2023-04-30T15:32:32.600Z,97844.00
2023-04-30T15:34:59.464Z,97807.00
2023-04-30T15:37:26.493Z,97815.00
2023-04-30T15:40:05.713Z,97824.00
2023-04-30T15:42:56.284Z,97821.00
2023-04-30T15:45:41.502Z,97829.00
2023-04-30T15:48:08.387Z,97826.00
2023-04-30T15:50:41.875Z,97816.00
2023-04-30T15:53:10.915Z,97832.00
2023-04-30T15:55:39.612Z,97830.00
2023-04-30T15:58:11.837Z,97818.00
2023-04-30T16:00:43.388Z,97816.00
2023-04-30T16:03:15.873Z,97819.00
2023-04-30T16:05:43.161Z,97809.00
2023-04-30T16:08:15.290Z,97805.00
2023-04-30T16:10:42.789Z,97811.00
2023-04-30T16:13:12.863Z,97815.00
2023-04-30T16:15:40.352Z,97798.00
2023-04-30T16:18:07.237Z,97804.00
2023-04-30T16:20:33.526Z,97794.00
2023-04-30T16:23:00.252Z,97795.00
2023-04-30T16:25:26.539Z,97801.00
2023-04-30T16:27:52.841Z,97795.00
2023-04-30T16:30:19.084Z,97802.00
2023-04-30T16:32:45.319Z,97784.00
2023-04-30T16:35:11.822Z,97798.00
2023-04-30T16:37:38.119Z,97791.00
2023-04-30T16:40:06.752Z,97786.00
2023-04-30T16:42:33.583Z,97793.00
2023-04-30T16:44:59.838Z,97785.00
2023-04-30T16:47:26.299Z,97777.00
2023-04-30T16:49:52.712Z,97789.00
2023-04-30T16:52:19.273Z,97781.00
2023-04-30T16:54:45.572Z,97780.00
2023-04-30T16:57:11.760Z,97776.00
2023-04-30T16:59:38.029Z,97782.00
2023-04-30T17:02:06.136Z,97769.00
2023-04-30T17:04:32.730Z,97762.00
2023-04-30T17:06:59.705Z,97775.00
2023-04-30T17:09:26.155Z,97762.00
2023-04-30T17:11:52.420Z,97768.00
2023-04-30T17:14:18.608Z,97762.00
2023-04-30T17:16:46.180Z,97767.00
2023-04-30T17:19:15.599Z,97761.00
2023-04-30T17:21:42.015Z,97768.00
2023-04-30T17:24:08.943Z,97766.00
2023-04-30T17:26:35.219Z,97759.00
2023-04-30T17:29:01.405Z,97768.00
2023-04-30T17:31:30.680Z,97766.00
2023-04-30T17:33:57.170Z,97759.00
2023-04-30T17:36:24.175Z,97769.00
2023-04-30T17:38:50.623Z,97758.00
2023-04-30T17:41:17.842Z,97755.00
2023-04-30T17:43:44.012Z,97753.00
2023-04-30T17:46:11.164Z,97748.00
2023-04-30T17:48:37.334Z,97762.00
2023-04-30T17:51:04.236Z,97760.00
2023-04-30T17:53:30.519Z,97768.00
2023-04-30T17:55:58.494Z,97765.00
2023-04-30T17:58:25.672Z,97771.00
2023-04-30T18:00:53.117Z,97766.00
2023-04-30T18:03:19.363Z,97762.00
2023-04-30T18:05:45.709Z,97747.00
2023-04-30T18:08:11.952Z,97750.00
2023-04-30T18:10:38.389Z,97759.00
2023-04-30T18:13:04.678Z,97754.00
2023-04-30T18:15:38.687Z,97747.00
2023-04-30T18:18:04.965Z,97746.00
2023-04-30T18:20:31.357Z,97753.00
2023-04-30T18:22:57.515Z,97746.00
2023-04-30T18:25:23.958Z,97749.00
2023-04-30T18:27:50.744Z,97749.00
2023-04-30T18:30:17.075Z,97752.00
2023-04-30T18:32:43.668Z,97758.00
2023-04-30T18:35:10.200Z,97759.00
2023-04-30T18:37:36.644Z,97762.00
2023-04-30T18:40:04.189Z,97769.00
2023-04-30T18:42:30.876Z,97772.00
2023-04-30T18:44:57.394Z,97753.00
2023-04-30T18:47:24.251Z,97760.00
2023-04-30T18:49:50.460Z,97749.00
2023-04-30T18:52:16.635Z,97753.00
2023-04-30T18:54:43.179Z,97759.00
2023-04-30T18:57:11.907Z,97755.00
2023-04-30T18:59:38.887Z,97773.00
2023-04-30T19:02:05.755Z,97760.00
2023-04-30T19:04:32.035Z,97766.00
2023-04-30T19:06:58.239Z,97770.00
2023-04-30T19:09:24.682Z,97770.00
2023-04-30T19:11:51.084Z,97768.00
2023-04-30T19:14:17.544Z,97778.00
2023-04-30T19:16:43.926Z,97776.00
2023-04-30T19:19:10.467Z,97766.00
2023-04-30T19:21:36.652Z,97771.00
2023-04-30T19:24:03.247Z,97771.00
2023-04-30T19:26:31.576Z,97777.00
2023-04-30T19:28:58.943Z,97773.00
2023-04-30T19:31:25.473Z,97774.00
2023-04-30T19:33:52.012Z,97777.00
2023-04-30T19:36:18.327Z,97771.00
2023-04-30T19:38:44.483Z,97776.00
2023-04-30T19:41:10.946Z,97780.00
2023-04-30T19:43:37.759Z,97778.00
2023-04-30T19:46:07.073Z,97775.00
2023-04-30T19:48:33.362Z,97794.00
2023-04-30T19:51:03.329Z,97795.00
2023-04-30T19:53:29.916Z,97773.00
2023-04-30T19:55:56.254Z,97786.00
2023-04-30T19:58:23.046Z,97794.00
2023-04-30T20:00:49.515Z,97793.00
2023-04-30T20:03:16.676Z,97788.00
2023-04-30T20:05:44.137Z,97779.00
2023-04-30T20:08:10.657Z,97797.00
2023-04-30T20:10:38.132Z,97789.00
2023-04-30T20:13:05.922Z,97790.00
2023-04-30T20:15:33.160Z,97789.00
2023-04-30T20:18:04.984Z,97800.00
2023-04-30T20:20:31.551Z,97799.00
2023-04-30T20:22:57.861Z,97794.00
2023-04-30T20:25:25.446Z,97800.00
2023-04-30T20:27:51.659Z,97802.00
2023-04-30T20:30:17.893Z,97792.00
2023-04-30T20:32:44.079Z,97803.00
2023-04-30T20:35:10.514Z,97788.00
2023-04-30T20:37:37.420Z,97782.00
2023-04-30T20:40:07.088Z,97792.00
2023-04-30T20:42:33.722Z,97801.00
2023-04-30T20:45:01.045Z,97790.00
2023-04-30T20:47:28.457Z,97804.00
2023-04-30T20:49:55.412Z,97802.00
2023-04-30T20:52:21.784Z,97806.00
2023-04-30T20:54:49.336Z,97798.00
2023-04-30T20:57:16.468Z,97785.00
2023-04-30T20:59:43.029Z,97796.00
2023-04-30T21:02:09.817Z,97804.00
2023-04-30T21:04:36.524Z,97777.00
2023-04-30T21:07:02.657Z,97796.00
2023-04-30T21:09:28.841Z,97786.00
2023-04-30T21:11:55.071Z,97793.00
2023-04-30T21:14:21.260Z,97785.00
2023-04-30T21:16:47.916Z,97793.00
2023-04-30T21:19:14.384Z,97793.00
2023-04-30T21:21:40.541Z,97793.00
2023-04-30T21:24:08.077Z,97790.00
2023-04-30T21:26:34.741Z,97790.00
2023-04-30T21:29:02.144Z,97790.00
2023-04-30T21:31:28.578Z,97782.00
2023-04-30T21:33:55.207Z,97793.00
2023-04-30T21:36:21.504Z,97778.00
2023-04-30T21:38:47.829Z,97786.00
2023-04-30T21:41:17.685Z,97791.00
2023-04-30T21:43:44.223Z,97786.00
2023-04-30T21:46:12.593Z,97767.00
2023-04-30T21:48:39.113Z,97796.00
2023-04-30T21:51:14.041Z,97782.00
2023-04-30T21:53:41.244Z,97775.00
2023-04-30T21:56:09.546Z,97769.00
2023-04-30T21:58:36.735Z,97765.00
2023-04-30T22:01:04.516Z,97782.00
2023-04-30T22:03:31.606Z,97773.00
2023-04-30T22:05:58.598Z,97769.00
2023-04-30T22:08:24.958Z,97777.00
2023-04-30T22:10:59.870Z,97775.00
2023-04-30T22:13:27.460Z,97759.00
2023-04-30T22:15:54.274Z,97762.00
2023-04-30T22:18:22.398Z,97758.00
2023-04-30T22:20:50.299Z,97758.00
2023-04-30T22:23:22.748Z,97759.00
2023-04-30T22:25:49.694Z,97748.00
2023-04-30T22:28:20.208Z,97751.00
2023-04-30T22:30:46.435Z,97761.00
2023-04-30T22:33:12.954Z,97750.00
2023-04-30T22:35:39.415Z,97749.00
2023-04-30T22:38:06.810Z,97752.00
2023-04-30T22:40:37.623Z,97735.00
2023-04-30T22:43:04.474Z,97736.00
2023-04-30T22:45:30.736Z,97745.00
2023-04-30T22:47:58.385Z,97745.00
2023-04-30T22:50:26.357Z,97731.00
2023-04-30T22:52:53.574Z,97725.00
2023-04-30T22:55:20.035Z,97745.00
2023-04-30T22:57:46.190Z,97734.00
2023-04-30T23:00:13.825Z,97739.00
2023-04-30T23:02:40.015Z,97734.00
2023-04-30T23:05:07.092Z,97741.00
2023-04-30T23:07:33.538Z,97746.00
2023-04-30T23:09:59.959Z,97738.00
2023-04-30T23:12:26.384Z,97732.00
2023-04-30T23:14:52.871Z,97729.00
2023-04-30T23:17:19.148Z,97735.00
2023-04-30T23:19:45.331Z,97732.00
2023-04-30T23:22:11.572Z,97731.00
2023-04-30T23:24:38.402Z,97729.00
2023-04-30T23:27:04.561Z,97727.00
2023-04-30T23:29:30.785Z,97736.00
2023-04-30T23:31:57.185Z,97725.00
2023-04-30T23:34:23.656Z,97741.00
2023-04-30T23:36:49.959Z,97730.00
2023-04-30T23:39:16.254Z,97721.00
2023-04-30T23:41:42.494Z,97712.00
2023-04-30T23:44:08.911Z,97712.00
2023-04-30T23:46:35.147Z,97730.00
2023-04-30T23:49:01.646Z,97720.00
2023-04-30T23:51:29.550Z,97712.00
2023-04-30T23:53:55.881Z,97710.00
2023-04-30T23:56:22.112Z,97721.00
2023-04-30T23:58:48.314Z,97708.00
